Time;durP1;ratioP1;P1;durP2;ratioP2;P2;SDS_P1;SDS_P2;PMS_P1;PMS_P2;Temp;Humidity;BMP_temperature;BMP_pressure;BME280_temperature;BME280_humidity;BME280_pressure;Samples;Min_cycle;Max_cycle;Signal;HPM_P1;HPM_P2
2023/09/29 00:02:09;;;;;;;16.58;4.90;;;18.60;76.50;;;;;;5012945;28;20060;-76
2023/09/29 00:04:34;;;;;;;13.98;4.63;;;18.70;76.40;;;;;;4996614;28;20057;-78
2023/09/29 00:07:00;;;;;;;16.05;5.15;;;18.60;76.50;;;;;;4998283;28;20117;-81
2023/09/29 00:09:27;;;;;;;16.33;4.00;;;18.60;76.50;;;;;;4993582;28;20042;-78
2023/09/29 00:11:53;;;;;;;14.90;4.60;;;18.70;76.10;;;;;;4992763;28;20077;-78
2023/09/29 00:14:19;;;;;;;16.60;4.60;;;18.70;76.20;;;;;;4991412;28;20512;-75
2023/09/29 00:16:45;;;;;;;11.93;4.10;;;18.70;76.20;;;;;;4998074;28;20041;-75
2023/09/29 00:19:12;;;;;;;13.65;4.43;;;18.70;76.20;;;;;;4994481;28;20959;-75
2023/09/29 00:21:37;;;;;;;15.35;4.60;;;18.70;76.40;;;;;;4991062;28;20085;-78
2023/09/29 00:24:04;;;;;;;13.73;4.47;;;18.70;76.50;;;;;;4998425;28;20070;-75
2023/09/29 00:26:30;;;;;;;14.07;4.10;;;18.70;76.60;;;;;;4996268;28;20035;-75
2023/09/29 00:28:56;;;;;;;14.80;4.45;;;18.70;76.80;;;;;;4994341;28;20039;-79
2023/09/29 00:31:21;;;;;;;12.05;3.88;;;18.70;77.00;;;;;;4998324;28;20667;-75
2023/09/29 00:33:50;;;;;;;11.55;3.75;;;18.70;77.10;;;;;;4995740;28;20042;-75
2023/09/29 00:36:16;;;;;;;14.23;3.95;;;18.70;77.20;;;;;;4992796;28;20047;-77
2023/09/29 00:38:42;;;;;;;13.68;3.72;;;18.70;77.40;;;;;;4995852;28;20084;-76
2023/09/29 00:41:08;;;;;;;14.40;4.22;;;18.70;77.20;;;;;;4992948;28;20089;-77
2023/09/29 00:43:35;;;;;;;17.80;4.20;;;18.80;77.20;;;;;;4990150;28;20041;-78
2023/09/29 00:46:03;;;;;;;13.35;3.70;;;18.80;77.30;;;;;;4996000;28;20042;-76
2023/09/29 00:48:33;;;;;;;10.52;3.40;;;18.90;77.20;;;;;;4994172;28;20039;-76
2023/09/29 00:51:00;;;;;;;15.23;3.83;;;18.90;77.20;;;;;;5000250;28;20026;-77
2023/09/29 00:53:28;;;;;;;13.18;3.97;;;19.00;77.20;;;;;;4998271;28;20251;-75
2023/09/29 00:55:55;;;;;;;14.35;3.90;;;19.00;77.30;;;;;;4994685;28;20053;-76
2023/09/29 00:58:21;;;;;;;18.55;4.13;;;19.00;77.30;;;;;;4992088;28;20043;-76
2023/09/29 01:00:47;;;;;;;11.18;3.53;;;19.00;77.50;;;;;;4993992;28;20030;-74
2023/09/29 01:03:14;;;;;;;16.83;4.05;;;19.10;77.60;;;;;;5000069;28;20036;-75
2023/09/29 01:05:43;;;;;;;15.15;4.32;;;19.00;77.70;;;;;;4998121;28;20056;-78
2023/09/29 01:08:12;;;;;;;12.63;3.97;;;19.10;77.90;;;;;;4997501;28;20041;-76
2023/09/29 01:10:39;;;;;;;11.00;3.88;;;19.10;78.00;;;;;;4995736;28;20534;-78
2023/09/29 01:13:05;;;;;;;13.20;3.95;;;19.10;78.10;;;;;;4996931;28;20121;-80
2023/09/29 01:15:34;;;;;;;11.77;3.75;;;19.10;78.10;;;;;;4995476;28;20064;-77
2023/09/29 01:18:01;;;;;;;12.38;3.88;;;19.10;78.50;;;;;;4989745;28;20543;-77
2023/09/29 01:20:29;;;;;;;12.85;3.65;;;19.10;78.50;;;;;;4996988;28;20038;-78
2023/09/29 01:23:03;;;;;;;11.43;3.88;;;19.10;78.80;;;;;;4998738;28;20022;-77
2023/09/29 01:25:29;;;;;;;11.05;3.80;;;19.20;79.00;;;;;;4998420;28;20091;-77
2023/09/29 01:27:56;;;;;;;12.20;3.22;;;19.20;79.10;;;;;;4999244;28;20251;-75
2023/09/29 01:30:24;;;;;;;17.58;4.65;;;19.20;79.20;;;;;;4986930;28;20037;-78
2023/09/29 01:32:51;;;;;;;12.70;3.88;;;19.20;79.50;;;;;;4999517;28;20026;-75
2023/09/29 01:35:23;;;;;;;12.32;3.42;;;19.20;79.80;;;;;;4997764;28;20620;-74
2023/09/29 01:37:49;;;;;;;13.55;4.05;;;19.20;80.00;;;;;;5004901;28;20388;-78
2023/09/29 01:40:20;;;;;;;12.68;3.97;;;19.30;80.30;;;;;;4997413;28;20030;-76
2023/09/29 01:42:47;;;;;;;10.63;3.72;;;19.30;80.50;;;;;;4999678;28;20066;-79
2023/09/29 01:45:15;;;;;;;11.50;3.70;;;19.30;80.70;;;;;;4995427;28;20057;-75
2023/09/29 01:47:43;;;;;;;10.48;3.92;;;19.30;81.00;;;;;;4996723;28;20079;-76
2023/09/29 01:50:10;;;;;;;8.25;3.42;;;19.30;81.20;;;;;;4998561;28;20185;-74
2023/09/29 01:52:37;;;;;;;13.45;4.20;;;19.30;81.60;;;;;;5003984;28;20029;-76
2023/09/29 01:55:12;;;;;;;13.73;3.75;;;19.30;81.70;;;;;;4998779;28;20026;-76
2023/09/29 01:57:41;;;;;;;10.77;3.83;;;19.30;82.10;;;;;;5003325;28;20120;-77
2023/09/29 02:00:11;;;;;;;13.10;3.47;;;19.30;82.30;;;;;;4995245;28;20552;-79
2023/09/29 02:02:37;;;;;;;9.70;3.03;;;19.40;82.30;;;;;;5000197;28;20026;-75
2023/09/29 02:05:02;;;;;;;12.73;4.18;;;19.30;82.40;;;;;;4998826;28;20046;-77
2023/09/29 02:07:29;;;;;;;10.88;3.47;;;19.30;82.70;;;;;;5000104;28;20034;-77
2023/09/29 02:09:55;;;;;;;11.65;3.83;;;19.30;82.90;;;;;;4997895;28;20053;-74
2023/09/29 02:12:21;;;;;;;11.70;3.45;;;19.30;82.90;;;;;;4998423;28;20035;-76
2023/09/29 02:14:47;;;;;;;10.43;3.42;;;19.40;82.90;;;;;;4999507;28;20045;-75
2023/09/29 02:17:13;;;;;;;9.23;3.67;;;19.40;83.00;;;;;;4998227;28;20055;-79
2023/09/29 02:19:38;;;;;;;9.52;3.45;;;19.40;83.20;;;;;;5001032;28;20042;-76
2023/09/29 02:22:07;;;;;;;8.57;3.60;;;19.40;83.30;;;;;;4997635;28;20595;-75
2023/09/29 02:24:33;;;;;;;9.77;3.25;;;19.40;83.30;;;;;;5000092;28;20121;-78
2023/09/29 02:26:59;;;;;;;11.00;3.58;;;19.40;83.40;;;;;;4995697;28;20513;-79
2023/09/29 02:29:27;;;;;;;11.90;3.67;;;19.50;83.30;;;;;;5000109;28;20096;-75
2023/09/29 02:31:55;;;;;;;12.77;4.10;;;19.40;83.40;;;;;;5002069;28;20036;-77
2023/09/29 02:34:24;;;;;;;10.40;3.20;;;19.50;83.40;;;;;;4997673;28;20173;-74
2023/09/29 02:36:52;;;;;;;9.35;3.53;;;19.40;83.40;;;;;;4996786;28;20032;-75
2023/09/29 02:39:18;;;;;;;13.18;3.63;;;19.40;83.50;;;;;;4998503;28;20412;-77
2023/09/29 02:41:44;;;;;;;12.25;3.47;;;19.40;83.60;;;;;;4996604;28;20053;-75
2023/09/29 02:44:09;;;;;;;9.52;3.50;;;19.40;83.70;;;;;;4998637;28;20038;-77
2023/09/29 02:46:35;;;;;;;9.82;3.05;;;19.40;83.90;;;;;;4995132;28;20064;-77
2023/09/29 02:49:03;;;;;;;10.90;3.67;;;19.40;84.00;;;;;;4991136;28;20034;-79
2023/09/29 02:51:29;;;;;;;10.75;3.45;;;19.40;84.10;;;;;;4993801;28;20038;-80
2023/09/29 02:53:55;;;;;;;10.95;3.90;;;19.40;84.20;;;;;;4995905;28;20050;-79
2023/09/29 02:56:23;;;;;;;8.43;3.20;;;19.40;84.40;;;;;;4999609;28;20073;-76
2023/09/29 02:58:52;;;;;;;12.15;3.20;;;19.30;84.60;;;;;;4990481;28;20132;-77
2023/09/29 03:01:18;;;;;;;13.60;3.30;;;19.30;84.70;;;;;;4987498;28;20129;-81
2023/09/29 03:03:47;;;;;;;8.38;3.65;;;19.30;84.80;;;;;;4993646;28;20041;-76
2023/09/29 03:06:18;;;;;;;14.73;3.38;;;19.40;84.90;;;;;;4993471;28;20236;-77
2023/09/29 03:08:43;;;;;;;11.02;3.70;;;19.40;85.10;;;;;;4990721;28;20042;-75
2023/09/29 03:11:09;;;;;;;9.07;3.30;;;19.40;85.10;;;;;;4997912;28;20042;-75
2023/09/29 03:13:40;;;;;;;9.15;3.45;;;19.40;85.20;;;;;;4992006;28;20496;-76
2023/09/29 03:16:07;;;;;;;12.80;3.58;;;19.50;85.40;;;;;;4994949;28;20121;-79
2023/09/29 03:18:35;;;;;;;12.45;3.45;;;19.50;85.50;;;;;;4995002;28;20034;-78
2023/09/29 03:21:04;;;;;;;9.50;3.50;;;19.50;85.50;;;;;;4992857;28;20104;-77
2023/09/29 03:23:33;;;;;;;11.38;3.50;;;19.50;85.60;;;;;;4998047;28;20045;-77
2023/09/29 03:25:59;;;;;;;9.02;3.20;;;19.60;85.60;;;;;;4996507;28;20042;-80
2023/09/29 03:28:25;;;;;;;7.75;3.67;;;19.60;85.80;;;;;;4990857;28;20472;-78
2023/09/29 03:30:51;;;;;;;9.07;3.15;;;19.60;85.70;;;;;;4992409;28;20040;-78
2023/09/29 03:33:17;;;;;;;8.25;3.30;;;19.60;85.80;;;;;;4995276;28;20049;-76
2023/09/29 03:35:43;;;;;;;11.45;3.53;;;19.60;86.00;;;;;;4999270;28;20472;-76
2023/09/29 03:38:09;;;;;;;10.30;3.22;;;19.60;86.00;;;;;;4999076;28;20029;-81
2023/09/29 03:40:34;;;;;;;8.07;3.35;;;19.60;86.20;;;;;;5000780;28;20334;-76
2023/09/29 03:43:01;;;;;;;8.30;3.42;;;19.50;86.40;;;;;;4994317;28;20117;-80
2023/09/29 03:45:27;;;;;;;11.02;3.53;;;19.60;86.50;;;;;;4998518;28;20052;-82
2023/09/29 03:47:53;;;;;;;8.00;3.25;;;19.60;86.50;;;;;;5000031;28;20435;-74
2023/09/29 03:50:19;;;;;;;8.90;3.20;;;19.60;86.60;;;;;;4996545;28;20038;-75
2023/09/29 03:52:46;;;;;;;8.63;3.08;;;19.60;86.60;;;;;;4999456;28;20022;-77
2023/09/29 03:55:12;;;;;;;10.30;3.50;;;19.60;86.80;;;;;;5000546;28;20026;-78
2023/09/29 03:57:38;;;;;;;8.90;3.30;;;19.50;86.90;;;;;;4992141;28;20034;-77
2023/09/29 04:00:11;;;;;;;9.45;3.15;;;19.50;86.90;;;;;;4999701;28;20045;-74
2023/09/29 04:02:36;;;;;;;9.63;3.03;;;19.50;87.10;;;;;;4996443;28;20038;-74
2023/09/29 04:05:03;;;;;;;8.88;3.83;;;19.50;87.40;;;;;;4997136;28;20029;-75
2023/09/29 04:07:29;;;;;;;10.55;3.50;;;19.40;87.60;;;;;;4996710;28;20062;-75
2023/09/29 04:09:55;;;;;;;8.55;3.95;;;19.40;87.70;;;;;;4994573;28;20073;-74
2023/09/29 04:12:21;;;;;;;10.30;3.55;;;19.40;87.80;;;;;;4991872;28;20048;-76
2023/09/29 04:14:46;;;;;;;9.57;3.78;;;19.40;87.90;;;;;;4997391;28;20493;-74
2023/09/29 04:17:13;;;;;;;10.27;3.80;;;19.30;88.10;;;;;;4995917;28;20030;-76
2023/09/29 04:19:38;;;;;;;10.07;3.95;;;19.30;88.30;;;;;;4994144;28;20084;-77
2023/09/29 04:22:04;;;;;;;10.38;3.70;;;19.30;88.40;;;;;;5000611;28;20030;-74
2023/09/29 04:24:30;;;;;;;9.07;3.33;;;19.30;88.40;;;;;;4990155;28;20068;-74
2023/09/29 04:26:56;;;;;;;9.05;3.78;;;19.30;88.50;;;;;;5000347;28;20113;-76
2023/09/29 04:29:22;;;;;;;10.40;4.05;;;19.30;88.60;;;;;;4993341;28;20105;-75
2023/09/29 04:31:47;;;;;;;8.23;3.13;;;19.30;88.70;;;;;;4997172;28;20030;-76
2023/09/29 04:34:13;;;;;;;10.90;4.22;;;19.30;88.70;;;;;;4996634;28;20084;-75
2023/09/29 04:36:40;;;;;;;8.95;3.33;;;19.30;88.70;;;;;;4996357;28;20049;-79
2023/09/29 04:39:06;;;;;;;8.27;3.75;;;19.30;88.80;;;;;;4992521;28;20485;-78
2023/09/29 04:41:32;;;;;;;10.40;4.30;;;19.40;88.80;;;;;;4985545;28;20030;-74
2023/09/29 04:43:57;;;;;;;9.35;3.47;;;19.30;88.80;;;;;;4987821;28;20485;-75
2023/09/29 04:46:23;;;;;;;7.85;3.25;;;19.40;88.80;;;;;;4988931;28;20271;-78
2023/09/29 04:48:53;;;;;;;8.18;4.00;;;19.30;88.90;;;;;;4984256;28;20030;-79
2023/09/29 04:51:18;;;;;;;12.27;4.68;;;19.40;89.00;;;;;;4992296;28;20584;-75
2023/09/29 04:53:45;;;;;;;9.40;3.60;;;19.40;89.20;;;;;;5001466;28;20039;-76
2023/09/29 04:56:10;;;;;;;19.40;5.15;;;19.40;89.30;;;;;;5005733;28;20049;-77
2023/09/29 04:58:36;;;;;;;18.73;5.13;;;19.40;89.30;;;;;;5001521;28;20121;-76
2023/09/29 05:01:02;;;;;;;10.25;4.28;;;19.40;89.30;;;;;;4998363;28;20357;-76
2023/09/29 05:03:28;;;;;;;21.35;4.90;;;19.30;89.50;;;;;;4997351;28;20042;-75
2023/09/29 05:05:54;;;;;;;20.67;4.60;;;19.40;89.40;;;;;;4997708;28;20103;-76
2023/09/29 05:08:19;;;;;;;18.10;5.00;;;19.30;89.40;;;;;;4997605;28;20044;-74
2023/09/29 05:10:45;;;;;;;14.38;4.40;;;19.40;89.60;;;;;;4992515;28;20053;-75
2023/09/29 05:13:11;;;;;;;11.32;4.18;;;19.30;89.70;;;;;;4993891;28;20049;-76
2023/09/29 05:15:37;;;;;;;7.55;3.53;;;19.40;89.80;;;;;;4996472;28;20041;-75
2023/09/29 05:18:03;;;;;;;8.07;3.90;;;19.40;89.80;;;;;;4991899;28;20123;-74
2023/09/29 05:20:29;;;;;;;9.50;4.10;;;19.40;89.80;;;;;;4989267;28;20116;-75
2023/09/29 05:22:54;;;;;;;8.80;3.50;;;19.40;89.90;;;;;;4989993;28;20022;-75
2023/09/29 05:25:20;;;;;;;10.20;4.43;;;19.50;89.80;;;;;;4993041;28;20550;-77
2023/09/29 05:27:46;;;;;;;10.25;3.70;;;19.50;89.80;;;;;;4993278;28;21732;-75
2023/09/29 05:30:12;;;;;;;9.75;3.80;;;19.50;89.70;;;;;;5000712;28;20048;-74
2023/09/29 05:32:38;;;;;;;9.63;3.83;;;19.50;89.70;;;;;;4998301;28;20488;-73
2023/09/29 05:35:04;;;;;;;9.40;3.60;;;19.50;89.70;;;;;;4994147;28;20054;-73
2023/09/29 05:37:30;;;;;;;10.25;3.72;;;19.50;89.90;;;;;;4994955;28;20129;-73
2023/09/29 05:39:57;;;;;;;8.80;4.00;;;19.50;89.90;;;;;;4992892;28;20477;-72
2023/09/29 05:42:23;;;;;;;11.73;3.95;;;19.50;89.80;;;;;;4998461;28;20068;-71
2023/09/29 05:44:49;;;;;;;7.57;3.65;;;19.50;89.90;;;;;;4992264;28;20049;-73
2023/09/29 05:47:16;;;;;;;11.00;3.92;;;19.50;90.00;;;;;;4993201;28;20069;-74
2023/09/29 05:49:42;;;;;;;9.10;4.40;;;19.40;90.10;;;;;;4994016;28;20038;-74
2023/09/29 05:52:08;;;;;;;7.53;3.85;;;19.40;90.20;;;;;;4990180;28;20081;-73
2023/09/29 05:54:33;;;;;;;7.55;3.67;;;19.40;90.30;;;;;;4998085;28;20034;-72
2023/09/29 05:56:59;;;;;;;9.50;4.47;;;19.30;90.50;;;;;;4998140;28;20042;-73
2023/09/29 05:59:25;;;;;;;7.60;3.58;;;19.30;90.50;;;;;;4994936;28;20054;-73
2023/09/29 06:01:51;;;;;;;7.97;4.00;;;19.20;90.60;;;;;;4993542;28;20035;-73
2023/09/29 06:04:16;;;;;;;9.20;3.88;;;19.20;90.70;;;;;;4995330;28;20042;-72
2023/09/29 06:06:42;;;;;;;9.43;4.35;;;19.20;90.80;;;;;;4997947;28;20503;-73
2023/09/29 06:09:08;;;;;;;10.38;3.92;;;19.20;91.00;;;;;;4995302;28;20049;-72
2023/09/29 06:11:33;;;;;;;11.48;4.40;;;19.10;91.00;;;;;;5000233;28;20022;-73
2023/09/29 06:13:59;;;;;;;7.22;3.90;;;19.10;91.10;;;;;;4995353;28;20111;-73
2023/09/29 06:16:25;;;;;;;9.93;3.55;;;19.20;91.10;;;;;;5001858;28;20062;-73
2023/09/29 06:18:51;;;;;;;11.60;4.30;;;19.30;91.10;;;;;;4999279;28;20030;-73
2023/09/29 06:21:16;;;;;;;9.77;4.18;;;19.20;91.20;;;;;;4996229;28;20072;-72
2023/09/29 06:23:42;;;;;;;11.73;4.10;;;19.30;91.20;;;;;;4999144;28;20057;-73
2023/09/29 06:26:08;;;;;;;9.75;4.18;;;19.30;91.10;;;;;;4996649;28;20069;-73
2023/09/29 06:28:34;;;;;;;10.93;4.55;;;19.30;91.20;;;;;;4992405;28;20049;-73
2023/09/29 06:30:59;;;;;;;9.43;4.55;;;19.30;91.30;;;;;;4993781;28;20030;-73
2023/09/29 06:33:25;;;;;;;8.13;4.18;;;19.40;91.20;;;;;;4993765;28;20504;-74
2023/09/29 06:35:51;;;;;;;9.57;4.35;;;19.40;91.20;;;;;;4994471;28;20447;-74
2023/09/29 06:38:17;;;;;;;8.70;4.18;;;19.40;91.20;;;;;;4998073;28;20066;-72
2023/09/29 06:40:44;;;;;;;9.55;3.90;;;19.50;91.20;;;;;;5000655;28;20120;-72
2023/09/29 06:43:10;;;;;;;10.73;4.38;;;19.50;91.00;;;;;;4993115;28;20049;-73
2023/09/29 06:45:36;;;;;;;9.93;4.18;;;19.60;90.90;;;;;;4991673;28;20350;-72
2023/09/29 06:48:04;;;;;;;8.20;3.78;;;19.60;90.80;;;;;;4994965;28;20484;-74
2023/09/29 06:50:30;;;;;;;9.82;4.07;;;19.60;90.60;;;;;;5001078;28;20077;-73
2023/09/29 06:52:55;;;;;;;10.38;4.50;;;19.70;90.50;;;;;;4996289;28;20523;-72
2023/09/29 06:55:21;;;;;;;8.63;3.85;;;19.80;90.30;;;;;;4999030;28;20519;-72
2023/09/29 06:57:48;;;;;;;8.55;3.85;;;19.80;90.20;;;;;;4995115;28;20464;-74
2023/09/29 07:00:13;;;;;;;10.98;4.32;;;19.90;90.10;;;;;;5001039;28;20508;-73
2023/09/29 07:02:39;;;;;;;11.77;4.70;;;20.10;89.90;;;;;;5000922;28;20026;-73
2023/09/29 07:05:05;;;;;;;10.50;3.90;;;20.10;89.40;;;;;;4999087;28;20041;-73
2023/09/29 07:07:31;;;;;;;10.82;3.92;;;20.30;89.00;;;;;;5003236;28;20026;-74
2023/09/29 07:09:57;;;;;;;8.38;3.97;;;20.30;88.70;;;;;;4997071;28;20064;-75
2023/09/29 07:12:23;;;;;;;10.25;4.15;;;20.30;88.80;;;;;;5004921;28;20155;-72
2023/09/29 07:14:51;;;;;;;11.18;4.57;;;20.40;88.60;;;;;;4992808;28;20038;-73
2023/09/29 07:17:17;;;;;;;11.95;4.28;;;20.50;88.50;;;;;;4996408;28;20592;-74
2023/09/29 07:19:43;;;;;;;11.20;4.05;;;20.60;88.20;;;;;;4994887;28;20334;-74
2023/09/29 07:22:09;;;;;;;11.02;4.45;;;20.60;87.90;;;;;;4996739;28;20025;-73
2023/09/29 07:24:34;;;;;;;9.82;3.55;;;20.60;87.80;;;;;;4990704;28;20046;-75
2023/09/29 07:27:00;;;;;;;10.85;4.25;;;20.60;88.20;;;;;;5001597;28;20611;-77
2023/09/29 07:29:26;;;;;;;9.32;3.75;;;20.60;88.30;;;;;;4996786;28;20088;-76
2023/09/29 07:31:52;;;;;;;10.02;4.13;;;20.50;88.50;;;;;;4996260;28;20322;-75
2023/09/29 07:34:18;;;;;;;11.98;4.22;;;20.50;88.70;;;;;;4998351;28;20045;-74
2023/09/29 07:36:45;;;;;;;11.13;4.63;;;20.40;89.10;;;;;;5003611;28;20693;-76
2023/09/29 07:39:15;;;;;;;9.50;4.00;;;20.40;89.40;;;;;;4995808;28;20357;-74
2023/09/29 07:41:41;;;;;;;10.15;4.13;;;20.30;89.80;;;;;;4994191;28;20038;-74
2023/09/29 07:44:10;;;;;;;10.35;4.40;;;20.30;90.10;;;;;;5000573;28;20181;-75
2023/09/29 07:46:37;;;;;;;11.02;4.35;;;20.40;90.20;;;;;;4989748;28;20046;-74
2023/09/29 07:49:03;;;;;;;10.10;4.35;;;20.50;90.00;;;;;;4998911;28;20540;-76
2023/09/29 07:51:29;;;;;;;9.35;4.15;;;20.60;89.80;;;;;;4994907;28;20040;-76
2023/09/29 07:53:57;;;;;;;10.77;4.20;;;20.60;89.70;;;;;;4997985;28;20483;-75
2023/09/29 07:56:23;;;;;;;11.02;4.35;;;20.60;89.70;;;;;;4992648;28;20383;-75
2023/09/29 07:58:48;;;;;;;10.50;4.22;;;20.60;89.70;;;;;;4995104;28;20045;-76
2023/09/29 08:01:14;;;;;;;10.57;4.00;;;20.60;89.80;;;;;;4996539;28;20037;-75
2023/09/29 08:03:42;;;;;;;14.07;5.13;;;20.60;90.10;;;;;;4998340;28;20033;-75
2023/09/29 08:06:08;;;;;;;9.10;4.10;;;20.60;90.50;;;;;;4994915;28;20115;-75
2023/09/29 08:08:35;;;;;;;12.02;4.38;;;20.60;90.90;;;;;;4995680;28;20038;-75
2023/09/29 08:11:01;;;;;;;9.45;4.05;;;20.60;91.00;;;;;;4994386;28;20029;-75
2023/09/29 08:13:27;;;;;;;13.85;4.70;;;20.60;91.10;;;;;;4999244;28;20045;-75
2023/09/29 08:15:53;;;;;;;10.02;4.13;;;20.50;91.40;;;;;;4999912;28;20034;-75
2023/09/29 08:18:19;;;;;;;11.57;4.57;;;20.50;91.70;;;;;;5000209;28;20487;-73
2023/09/29 08:20:46;;;;;;;10.98;4.72;;;20.50;91.90;;;;;;4996712;28;20034;-74
2023/09/29 08:23:12;;;;;;;8.98;4.28;;;20.50;92.30;;;;;;4995810;28;20033;-72
2023/09/29 08:25:38;;;;;;;10.07;4.40;;;20.40;92.20;;;;;;4998542;28;20042;-72
2023/09/29 08:28:05;;;;;;;9.82;4.63;;;20.30;92.30;;;;;;4999571;28;20464;-73
2023/09/29 08:30:31;;;;;;;10.35;4.65;;;20.20;92.40;;;;;;4994998;28;20034;-72
2023/09/29 08:32:57;;;;;;;12.07;4.25;;;20.20;92.50;;;;;;4998488;28;21027;-77
2023/09/29 08:35:23;;;;;;;11.20;4.00;;;20.10;92.70;;;;;;4995673;28;20413;-73
2023/09/29 08:37:49;;;;;;;10.98;4.82;;;20.10;92.80;;;;;;5000605;28;20476;-73
2023/09/29 08:40:19;;;;;;;9.95;3.90;;;20.10;93.00;;;;;;4998685;28;20066;-74
2023/09/29 08:42:51;;;;;;;11.13;4.07;;;20.10;92.80;;;;;;5002364;28;20029;-73
2023/09/29 08:45:17;;;;;;;9.65;3.70;;;20.10;92.80;;;;;;4997275;28;20125;-73
2023/09/29 08:47:49;;;;;;;10.15;3.30;;;20.10;92.80;;;;;;4998076;28;20030;-73
2023/09/29 08:50:16;;;;;;;9.23;2.60;;;20.10;92.60;;;;;;5001000;28;20034;-73
2023/09/29 08:52:44;;;;;;;6.65;2.40;;;20.10;92.20;;;;;;4998794;28;20112;-73
2023/09/29 08:55:12;;;;;;;6.95;2.15;;;20.10;92.30;;;;;;4998697;28;20029;-73
2023/09/29 08:57:40;;;;;;;8.30;2.78;;;20.30;92.30;;;;;;5003059;28;20040;-74
2023/09/29 09:00:08;;;;;;;6.65;2.30;;;20.40;92.20;;;;;;5000359;28;20512;-73
2023/09/29 09:02:33;;;;;;;8.68;2.30;;;20.60;92.00;;;;;;4994433;28;20033;-72
2023/09/29 09:04:59;;;;;;;5.70;1.98;;;20.60;91.80;;;;;;4997629;28;20384;-75
2023/09/29 09:07:25;;;;;;;8.88;2.33;;;20.60;91.90;;;;;;5003835;28;20088;-72
2023/09/29 09:09:53;;;;;;;5.70;2.00;;;20.60;91.80;;;;;;4999511;28;20065;-74
2023/09/29 09:12:34;;;;;;;8.55;2.47;;;20.60;92.00;;;;;;5001684;28;20034;-74
2023/09/29 09:15:01;;;;;;;8.13;2.47;;;20.60;92.20;;;;;;4997634;28;20054;-76
2023/09/29 09:17:27;;;;;;;7.35;2.55;;;20.50;92.20;;;;;;4999519;28;20460;-73
2023/09/29 09:19:54;;;;;;;9.40;3.20;;;20.40;92.60;;;;;;4999174;28;20042;-74
2023/09/29 09:22:26;;;;;;;8.70;2.60;;;20.50;92.90;;;;;;5008216;28;20025;-75
2023/09/29 09:25:02;;;;;;;6.50;2.50;;;20.60;92.80;;;;;;4999246;28;20038;-73
2023/09/29 09:27:38;;;;;;;6.90;2.30;;;20.50;93.00;;;;;;5003439;28;20072;-73
2023/09/29 09:30:05;;;;;;;6.38;2.45;;;20.60;93.10;;;;;;4997832;28;20418;-73
2023/09/29 09:32:31;;;;;;;6.53;2.47;;;20.60;93.20;;;;;;4996602;28;20036;-74
2023/09/29 09:34:58;;;;;;;7.47;2.53;;;20.60;93.20;;;;;;5000510;28;20334;-75
2023/09/29 09:37:27;;;;;;;7.47;2.42;;;20.50;93.10;;;;;;4999612;28;20677;-74
2023/09/29 09:39:55;;;;;;;8.95;2.35;;;20.50;93.50;;;;;;4997677;28;20041;-73
2023/09/29 09:42:26;;;;;;;7.05;2.42;;;20.40;93.80;;;;;;4993762;28;20019;-76
2023/09/29 09:44:56;;;;;;;8.50;2.60;;;20.40;94.30;;;;;;4994214;28;20038;-72
2023/09/29 09:47:25;;;;;;;6.28;2.70;;;20.40;94.10;;;;;;5003103;28;20258;-73
2023/09/29 09:49:55;;;;;;;7.82;2.40;;;20.30;94.40;;;;;;5006680;28;20041;-74
2023/09/29 09:52:29;;;;;;;7.00;3.03;;;20.30;94.60;;;;;;5021106;28;20589;-76
2023/09/29 09:55:11;;;;;;;7.47;3.35;;;20.10;94.60;;;;;;5002678;28;20111;-75
2023/09/29 09:57:38;;;;;;;7.82;3.00;;;19.90;95.40;;;;;;4997752;28;20044;-75
2023/09/29 10:00:10;;;;;;;10.43;3.72;;;19.80;95.60;;;;;;4995257;28;20373;-74
2023/09/29 10:02:51;;;;;;;9.27;3.90;;;19.70;95.70;;;;;;4999642;28;20030;-74
2023/09/29 10:05:30;;;;;;;9.93;2.97;;;19.60;95.50;;;;;;4999540;28;20094;-74
2023/09/29 10:08:01;;;;;;;7.72;2.78;;;19.50;95.30;;;;;;4991366;28;20120;-74
2023/09/29 10:10:36;;;;;;;10.98;3.95;;;19.60;95.40;;;;;;4995666;28;20055;-75
2023/09/29 10:13:03;;;;;;;9.40;3.50;;;19.70;95.20;;;;;;4996656;28;20038;-74
2023/09/29 10:15:29;;;;;;;10.82;3.60;;;19.70;94.80;;;;;;5001200;28;20515;-75
2023/09/29 10:17:58;;;;;;;9.57;3.60;;;19.60;94.70;;;;;;5000850;28;20057;-73
2023/09/29 10:20:26;;;;;;;9.35;3.42;;;19.60;94.40;;;;;;4998570;28;20496;-74
2023/09/29 10:23:13;;;;;;;13.43;4.38;;;19.70;94.40;;;;;;5000697;28;20480;-74
2023/09/29 10:25:42;;;;;;;9.57;3.70;;;19.90;94.40;;;;;;4999807;28;20496;-73
2023/09/29 10:28:08;;;;;;;10.70;3.72;;;19.70;94.10;;;;;;4998396;28;20046;-73
2023/09/29 10:30:35;;;;;;;10.10;3.60;;;19.70;94.40;;;;;;4996394;28;20035;-74
2023/09/29 10:33:11;;;;;;;15.82;4.03;;;19.60;94.20;;;;;;4991683;28;20066;-77
2023/09/29 10:35:44;;;;;;;13.68;4.18;;;19.40;94.60;;;;;;4989794;28;20045;-76
2023/09/29 10:38:22;;;;;;;10.82;3.95;;;19.30;94.90;;;;;;4986741;28;20097;-74
2023/09/29 10:40:48;;;;;;;8.73;4.25;;;19.30;95.30;;;;;;4987895;28;20480;-74
2023/09/29 10:43:17;;;;;;;11.68;3.70;;;19.30;95.20;;;;;;4990557;28;20117;-74
2023/09/29 10:45:44;;;;;;;8.05;2.65;;;19.10;94.90;;;;;;4991526;28;20049;-75
2023/09/29 10:48:11;;;;;;;7.78;3.28;;;19.00;94.90;;;;;;4990109;28;20108;-75
2023/09/29 10:50:44;;;;;;;10.75;3.17;;;18.90;95.10;;;;;;4994266;28;20429;-76
2023/09/29 10:53:11;;;;;;;9.23;2.80;;;18.80;94.70;;;;;;4991615;28;20125;-74
2023/09/29 10:55:51;;;;;;;11.57;3.25;;;18.80;94.70;;;;;;4994990;28;20057;-75
2023/09/29 10:58:19;;;;;;;11.95;2.78;;;18.70;93.90;;;;;;4988851;28;20561;-74
2023/09/29 11:00:47;;;;;;;7.65;2.20;;;18.70;94.10;;;;;;4992318;28;20049;-73
2023/09/29 11:03:15;;;;;;;11.38;3.22;;;18.60;93.30;;;;;;4989143;28;20089;-75
2023/09/29 11:05:54;;;;;;;11.13;3.28;;;18.60;93.40;;;;;;4988521;28;20034;-72
2023/09/29 11:08:29;;;;;;;10.90;3.30;;;18.60;92.80;;;;;;4989700;28;20046;-75
2023/09/29 11:10:59;;;;;;;10.02;3.20;;;19.00;93.40;;;;;;4989363;28;20268;-73
2023/09/29 11:13:26;;;;;;;9.48;3.33;;;19.10;92.80;;;;;;4991348;28;20125;-74
2023/09/29 11:15:52;;;;;;;14.57;3.65;;;19.10;92.00;;;;;;4992253;28;20532;-75
2023/09/29 11:18:30;;;;;;;13.00;3.67;;;19.10;92.10;;;;;;4990602;28;20538;-75
2023/09/29 11:21:00;;;;;;;11.43;3.00;;;19.20;91.50;;;;;;4988458;28;20069;-75
2023/09/29 11:23:28;;;;;;;9.52;3.45;;;19.20;91.10;;;;;;4987835;28;20609;-76
2023/09/29 11:25:58;;;;;;;10.68;3.72;;;19.10;90.90;;;;;;4992400;28;20038;-76
2023/09/29 11:28:26;;;;;;;8.77;3.17;;;19.20;91.00;;;;;;4997011;28;20187;-74
2023/09/29 11:30:54;;;;;;;9.20;3.92;;;19.10;89.90;;;;;;5000222;28;20026;-74
2023/09/29 11:33:20;;;;;;;8.75;3.88;;;19.00;90.60;;;;;;5001319;28;20044;-74
2023/09/29 11:35:46;;;;;;;11.90;4.07;;;19.10;90.90;;;;;;4995537;28;20041;-74
2023/09/29 11:38:19;;;;;;;10.18;4.55;;;19.10;90.20;;;;;;4996443;28;20439;-74
2023/09/29 11:40:49;;;;;;;10.20;4.00;;;19.00;89.80;;;;;;4999621;28;20488;-74
2023/09/29 11:43:15;;;;;;;10.65;4.63;;;19.00;89.60;;;;;;4994857;28;20142;-74
2023/09/29 11:45:41;;;;;;;10.95;4.20;;;19.10;89.60;;;;;;5000531;28;20153;-74
2023/09/29 11:48:07;;;;;;;12.30;4.70;;;19.30;88.80;;;;;;4996764;28;20481;-76
2023/09/29 11:50:33;;;;;;;10.05;4.50;;;19.50;88.80;;;;;;4996087;28;20066;-75
2023/09/29 11:53:06;;;;;;;11.38;4.53;;;19.70;88.70;;;;;;4997018;28;20822;-74
2023/09/29 11:55:35;;;;;;;15.77;5.03;;;19.80;88.00;;;;;;4998966;28;20066;-74
2023/09/29 11:58:01;;;;;;;11.23;4.78;;;19.90;87.90;;;;;;4996730;28;20515;-73
2023/09/29 12:00:27;;;;;;;14.07;5.05;;;20.00;86.10;;;;;;4999076;28;20355;-73
2023/09/29 12:02:54;;;;;;;13.23;4.90;;;20.10;85.70;;;;;;4994170;28;20057;-74
2023/09/29 12:05:19;;;;;;;10.98;4.70;;;20.00;84.90;;;;;;4997810;28;20035;-74
2023/09/29 12:07:45;;;;;;;10.45;4.57;;;19.90;85.70;;;;;;4998832;28;20095;-72
2023/09/29 12:10:11;;;;;;;16.70;5.60;;;19.80;85.30;;;;;;4996371;28;20049;-73
2023/09/29 12:12:36;;;;;;;16.38;4.88;;;19.80;85.50;;;;;;5001056;28;20089;-75
2023/09/29 12:15:03;;;;;;;12.00;4.28;;;19.60;84.60;;;;;;4998340;28;20517;-73
2023/09/29 12:17:30;;;;;;;18.75;4.85;;;19.50;85.20;;;;;;4996683;28;20026;-72
2023/09/29 12:19:55;;;;;;;17.25;5.25;;;19.40;85.70;;;;;;4997359;28;20030;-73
2023/09/29 12:22:22;;;;;;;15.35;4.97;;;19.30;85.80;;;;;;4994042;28;20098;-74
2023/09/29 12:24:48;;;;;;;12.85;5.07;;;19.30;85.90;;;;;;4999216;28;20034;-75
2023/09/29 12:27:13;;;;;;;14.25;5.18;;;19.40;86.40;;;;;;4996722;28;20036;-73
2023/09/29 12:29:39;;;;;;;14.00;5.55;;;19.30;86.30;;;;;;4997588;28;20455;-73
2023/09/29 12:32:05;;;;;;;14.52;5.40;;;19.20;86.40;;;;;;4994467;28;20023;-75
2023/09/29 12:34:32;;;;;;;14.15;5.35;;;19.30;86.50;;;;;;5008171;28;20030;-73
2023/09/29 12:37:02;;;;;;;16.52;5.43;;;19.30;86.30;;;;;;5014784;28;20029;-75
2023/09/29 12:39:28;;;;;;;17.23;5.63;;;19.50;86.20;;;;;;5017245;28;20057;-75
2023/09/29 12:41:53;;;;;;;11.25;4.93;;;19.60;85.30;;;;;;5018967;28;20033;-71